sensor_id;sensor_type;location;lat;lon;timestamp;pressure;altitude;pressure_sealevel;temperature;humidity
50250;BME280;36133;42.522;27.456;2023-04-23T00:01:34;101272.97;;;12.23;56.09
50250;BME280;36133;42.522;27.456;2023-04-23T00:04:05;101440.25;;;13.26;56.57
50250;BME280;36133;42.522;27.456;2023-04-23T00:06:34;101441.19;;;13.33;56.21
50250;BME280;36133;42.522;27.456;2023-04-23T00:09:00;101436.59;;;13.18;56.51
50250;BME280;36133;42.522;27.456;2023-04-23T00:11:27;101438.56;;;13.25;56.12
50250;BME280;36133;42.522;27.456;2023-04-23T00:13:53;101415.63;;;12.98;56.44
50250;BME280;36133;42.522;27.456;2023-04-23T00:16:19;100807.03;;;9.46;56.02
50250;BME280;36133;42.522;27.456;2023-04-23T00:18:45;101417.03;;;13.08;56.08
50250;BME280;36133;42.522;27.456;2023-04-23T00:21:11;100986.09;;;10.21;56.10
50250;BME280;36133;42.522;27.456;2023-04-23T00:23:38;101138.53;;;11.33;56.24
50250;BME280;36133;42.522;27.456;2023-04-23T00:26:03;101045.66;;;10.04;58.32
50250;BME280;36133;42.522;27.456;2023-04-23T00:28:29;101132.00;;;10.51;59.96
50250;BME280;36133;42.522;27.456;2023-04-23T00:30:57;101303.56;;;11.09;61.23
50250;BME280;36133;42.522;27.456;2023-04-23T00:33:23;101443.06;;;11.18;64.23
50250;BME280;36133;42.522;27.456;2023-04-23T00:35:48;101456.16;;;11.45;64.55
50250;BME280;36133;42.522;27.456;2023-04-23T00:38:14;101439.06;;;11.84;62.73
50250;BME280;36133;42.522;27.456;2023-04-23T00:40:39;101344.66;;;11.66;61.37
50250;BME280;36133;42.522;27.456;2023-04-23T00:43:05;101443.31;;;12.10;61.91
50250;BME280;36133;42.522;27.456;2023-04-23T00:45:31;101289.88;;;11.10;62.17
50250;BME280;36133;42.522;27.456;2023-04-23T00:47:57;101329.19;;;11.21;61.52
50250;BME280;36133;42.522;27.456;2023-04-23T00:50:23;101447.03;;;10.91;64.73
50250;BME280;36133;42.522;27.456;2023-04-23T00:52:49;101445.19;;;10.75;65.98
50250;BME280;36133;42.522;27.456;2023-04-23T00:55:14;101450.75;;;10.49;66.04
50250;BME280;36133;42.522;27.456;2023-04-23T00:57:40;101136.56;;;8.48;66.74
50250;BME280;36133;42.522;27.456;2023-04-23T01:00:10;100838.72;;;7.25;64.31
50250;BME280;36133;42.522;27.456;2023-04-23T01:02:38;101320.19;;;10.18;63.74
50250;BME280;36133;42.522;27.456;2023-04-23T01:05:04;101446.81;;;11.01;64.37
50250;BME280;36133;42.522;27.456;2023-04-23T01:07:33;101393.13;;;9.67;66.44
50250;BME280;36133;42.522;27.456;2023-04-23T01:09:59;101419.38;;;10.40;64.67
50250;BME280;36133;42.522;27.456;2023-04-23T01:12:25;101359.78;;;10.17;63.53
50250;BME280;36133;42.522;27.456;2023-04-23T01:14:50;101450.94;;;10.32;65.36
50250;BME280;36133;42.522;27.456;2023-04-23T01:17:16;101258.31;;;9.35;64.82
50250;BME280;36133;42.522;27.456;2023-04-23T01:19:42;101436.09;;;10.44;64.32
50250;BME280;36133;42.522;27.456;2023-04-23T01:22:14;101394.59;;;10.45;63.46
50250;BME280;36133;42.522;27.456;2023-04-23T01:24:41;101392.34;;;9.91;65.28
50250;BME280;36133;42.522;27.456;2023-04-23T01:27:09;101450.03;;;10.15;65.88
50250;BME280;36133;42.522;27.456;2023-04-23T01:29:37;101427.00;;;10.45;64.61
50250;BME280;36133;42.522;27.456;2023-04-23T01:32:03;101024.78;;;8.12;63.64
50250;BME280;36133;42.522;27.456;2023-04-23T01:34:30;101133.25;;;8.63;63.43
50250;BME280;36133;42.522;27.456;2023-04-23T01:36:57;101217.34;;;9.15;63.36
50250;BME280;36133;42.522;27.456;2023-04-23T01:39:23;101450.28;;;10.46;64.61
50250;BME280;36133;42.522;27.456;2023-04-23T01:41:48;101350.03;;;10.16;63.93
50250;BME280;36133;42.522;27.456;2023-04-23T01:44:14;101271.91;;;9.17;65.58
50250;BME280;36133;42.522;27.456;2023-04-23T01:46:40;101389.13;;;9.72;66.89
50250;BME280;36133;42.522;27.456;2023-04-23T01:49:06;101391.81;;;9.80;66.77
50250;BME280;36133;42.522;27.456;2023-04-23T01:51:34;101117.38;;;8.09;66.45
50250;BME280;36133;42.522;27.456;2023-04-23T01:53:59;101473.13;;;10.01;67.24
50250;BME280;36133;42.522;27.456;2023-04-23T01:56:26;101433.72;;;9.16;69.06
50250;BME280;36133;42.522;27.456;2023-04-23T01:58:52;101319.34;;;8.68;68.78
50250;BME280;36133;42.522;27.456;2023-04-23T02:01:18;101470.09;;;9.20;71.24
50250;BME280;36133;42.522;27.456;2023-04-23T02:03:44;101271.53;;;8.10;70.36
50250;BME280;36133;42.522;27.456;2023-04-23T02:06:10;101466.31;;;9.73;69.41
50250;BME280;36133;42.522;27.456;2023-04-23T02:08:37;101196.03;;;8.03;68.57
50250;BME280;36133;42.522;27.456;2023-04-23T02:11:04;101358.22;;;9.50;67.27
50250;BME280;36133;42.522;27.456;2023-04-23T02:13:31;101410.44;;;9.49;68.68
50250;BME280;36133;42.522;27.456;2023-04-23T02:15:57;101420.13;;;9.25;69.77
50250;BME280;36133;42.522;27.456;2023-04-23T02:18:23;101471.69;;;9.30;69.79
50250;BME280;36133;42.522;27.456;2023-04-23T02:20:48;101277.63;;;8.72;68.58
50250;BME280;36133;42.522;27.456;2023-04-23T02:23:14;101478.03;;;9.55;69.36
50250;BME280;36133;42.522;27.456;2023-04-23T02:25:39;101481.94;;;9.69;69.09
50250;BME280;36133;42.522;27.456;2023-04-23T02:28:06;101406.25;;;9.54;68.25
50250;BME280;36133;42.522;27.456;2023-04-23T02:30:33;101427.50;;;9.57;68.66
50250;BME280;36133;42.522;27.456;2023-04-23T02:32:59;101393.09;;;9.51;68.53
50250;BME280;36133;42.522;27.456;2023-04-23T02:35:25;100938.44;;;6.70;68.66
50250;BME280;36133;42.522;27.456;2023-04-23T02:37:52;101455.44;;;10.15;69.08
50250;BME280;36133;42.522;27.456;2023-04-23T02:40:18;101460.97;;;10.05;69.85
50250;BME280;36133;42.522;27.456;2023-04-23T02:42:44;101448.16;;;9.99;69.18
50250;BME280;36133;42.522;27.456;2023-04-23T02:45:10;101462.91;;;10.29;69.09
50250;BME280;36133;42.522;27.456;2023-04-23T02:47:36;101421.88;;;10.17;68.96
50250;BME280;36133;42.522;27.456;2023-04-23T02:50:01;101456.00;;;10.59;69.64
50250;BME280;36133;42.522;27.456;2023-04-23T02:52:30;101423.59;;;10.35;69.15
50250;BME280;36133;42.522;27.456;2023-04-23T02:54:55;101172.97;;;8.69;68.48
50250;BME280;36133;42.522;27.456;2023-04-23T02:57:21;101443.53;;;10.42;68.15
50250;BME280;36133;42.522;27.456;2023-04-23T02:59:48;101266.63;;;9.07;69.14
50250;BME280;36133;42.522;27.456;2023-04-23T03:02:15;101402.97;;;10.17;68.36
50250;BME280;36133;42.522;27.456;2023-04-23T03:04:40;101471.69;;;10.64;67.02
50250;BME280;36133;42.522;27.456;2023-04-23T03:07:06;101405.69;;;10.09;68.50
50250;BME280;36133;42.522;27.456;2023-04-23T03:09:32;101440.72;;;9.93;67.67
50250;BME280;36133;42.522;27.456;2023-04-23T03:11:58;101298.59;;;8.94;68.15
50250;BME280;36133;42.522;27.456;2023-04-23T03:14:23;101472.84;;;10.28;66.76
50250;BME280;36133;42.522;27.456;2023-04-23T03:16:49;101172.00;;;8.02;68.00
50250;BME280;36133;42.522;27.456;2023-04-23T03:19:14;101463.28;;;9.76;67.43
50250;BME280;36133;42.522;27.456;2023-04-23T03:21:40;101488.66;;;9.23;69.87
50250;BME280;36133;42.522;27.456;2023-04-23T03:24:06;101494.78;;;9.07;69.98
50250;BME280;36133;42.522;27.456;2023-04-23T03:26:31;101496.44;;;9.00;69.76
50250;BME280;36133;42.522;27.456;2023-04-23T03:28:57;101493.84;;;9.16;69.70
50250;BME280;36133;42.522;27.456;2023-04-23T03:31:22;101486.44;;;8.92;70.53
50250;BME280;36133;42.522;27.456;2023-04-23T03:33:48;101494.63;;;9.08;70.06
50250;BME280;36133;42.522;27.456;2023-04-23T03:36:13;101365.91;;;8.16;68.93
50250;BME280;36133;42.522;27.456;2023-04-23T03:38:40;101263.56;;;7.56;69.56
50250;BME280;36133;42.522;27.456;2023-04-23T03:41:05;101492.72;;;9.27;68.55
50250;BME280;36133;42.522;27.456;2023-04-23T03:43:31;101390.53;;;8.47;68.73
50250;BME280;36133;42.522;27.456;2023-04-23T03:45:56;101496.97;;;9.03;69.11
50250;BME280;36133;42.522;27.456;2023-04-23T03:48:22;101378.50;;;8.16;68.88
50250;BME280;36133;42.522;27.456;2023-04-23T03:50:48;101505.53;;;8.99;69.46
50250;BME280;36133;42.522;27.456;2023-04-23T03:53:14;101187.19;;;7.23;69.47
50250;BME280;36133;42.522;27.456;2023-04-23T03:55:42;101333.09;;;8.13;70.09
50250;BME280;36133;42.522;27.456;2023-04-23T03:58:07;101387.72;;;8.31;70.82
50250;BME280;36133;42.522;27.456;2023-04-23T04:00:33;101505.03;;;9.03;71.85
50250;BME280;36133;42.522;27.456;2023-04-23T04:02:59;101462.28;;;9.08;70.66
50250;BME280;36133;42.522;27.456;2023-04-23T04:05:26;101486.44;;;9.52;70.02
50250;BME280;36133;42.522;27.456;2023-04-23T04:07:52;101268.88;;;8.36;69.81
50250;BME280;36133;42.522;27.456;2023-04-23T04:10:19;101510.19;;;9.49;70.48
50250;BME280;36133;42.522;27.456;2023-04-23T04:12:44;101200.09;;;7.81;70.29
50250;BME280;36133;42.522;27.456;2023-04-23T04:15:12;101519.97;;;9.84;69.96
50250;BME280;36133;42.522;27.456;2023-04-23T04:17:38;101006.47;;;6.43;70.50
50250;BME280;36133;42.522;27.456;2023-04-23T04:20:05;101527.25;;;9.99;69.54
50250;BME280;36133;42.522;27.456;2023-04-23T04:22:35;101528.28;;;9.64;70.48
50250;BME280;36133;42.522;27.456;2023-04-23T04:25:00;101519.69;;;10.11;69.53
50250;BME280;36133;42.522;27.456;2023-04-23T04:27:26;101350.09;;;9.33;68.40
50250;BME280;36133;42.522;27.456;2023-04-23T04:29:52;101515.34;;;10.18;68.93
50250;BME280;36133;42.522;27.456;2023-04-23T04:32:17;101527.63;;;10.13;69.49
50250;BME280;36133;42.522;27.456;2023-04-23T04:34:43;101523.16;;;9.87;69.43
50250;BME280;36133;42.522;27.456;2023-04-23T04:37:08;101466.06;;;9.50;70.25
50250;BME280;36133;42.522;27.456;2023-04-23T04:39:36;101416.34;;;9.52;69.55
50250;BME280;36133;42.522;27.456;2023-04-23T04:42:02;101481.06;;;9.94;69.45
50250;BME280;36133;42.522;27.456;2023-04-23T04:44:28;101526.97;;;10.19;68.79
50250;BME280;36133;42.522;27.456;2023-04-23T04:46:54;101511.03;;;10.42;67.08
50250;BME280;36133;42.522;27.456;2023-04-23T04:49:20;101534.78;;;10.38;67.46
50250;BME280;36133;42.522;27.456;2023-04-23T04:51:49;101463.16;;;9.85;67.05
50250;BME280;36133;42.522;27.456;2023-04-23T04:54:14;101512.28;;;10.13;66.70
50250;BME280;36133;42.522;27.456;2023-04-23T04:56:40;101547.16;;;11.06;64.92
50250;BME280;36133;42.522;27.456;2023-04-23T04:59:05;101558.06;;;11.45;62.83
50250;BME280;36133;42.522;27.456;2023-04-23T05:01:34;101562.84;;;12.21;61.07
50250;BME280;36133;42.522;27.456;2023-04-23T05:04:01;101550.28;;;11.97;61.92
50250;BME280;36133;42.522;27.456;2023-04-23T05:06:26;101314.38;;;10.70;61.82
50250;BME280;36133;42.522;27.456;2023-04-23T05:08:53;101058.13;;;9.65;59.37
50250;BME280;36133;42.522;27.456;2023-04-23T05:11:19;101202.81;;;10.61;59.19
50250;BME280;36133;42.522;27.456;2023-04-23T05:13:46;101566.69;;;12.81;59.13
50250;BME280;36133;42.522;27.456;2023-04-23T05:16:12;101372.81;;;12.26;57.71
50250;BME280;36133;42.522;27.456;2023-04-23T05:18:38;101550.13;;;13.36;58.16
50250;BME280;36133;42.522;27.456;2023-04-23T05:21:04;101005.69;;;10.07;58.83
50250;BME280;36133;42.522;27.456;2023-04-23T05:23:31;101362.78;;;12.49;56.96
50250;BME280;36133;42.522;27.456;2023-04-23T05:25:56;101340.09;;;12.13;58.68
50250;BME280;36133;42.522;27.456;2023-04-23T05:28:23;101310.66;;;12.77;56.53
50250;BME280;36133;42.522;27.456;2023-04-23T05:30:49;101367.34;;;13.08;56.43
50250;BME280;36133;42.522;27.456;2023-04-23T05:33:15;101227.75;;;12.82;55.65
50250;BME280;36133;42.522;27.456;2023-04-23T05:35:43;101577.47;;;14.81;55.89
50250;BME280;36133;42.522;27.456;2023-04-23T05:38:09;101193.75;;;12.80;54.79
50250;BME280;36133;42.522;27.456;2023-04-23T05:40:35;101401.13;;;13.86;56.18
50250;BME280;36133;42.522;27.456;2023-04-23T05:43:01;101230.31;;;13.05;55.28
50250;BME280;36133;42.522;27.456;2023-04-23T05:45:26;101381.56;;;14.40;54.04
50250;BME280;36133;42.522;27.456;2023-04-23T05:47:52;101397.88;;;14.40;54.09
50250;BME280;36133;42.522;27.456;2023-04-23T05:50:19;101390.91;;;14.30;53.84
50250;BME280;36133;42.522;27.456;2023-04-23T05:52:45;101415.28;;;14.94;53.59
50250;BME280;36133;42.522;27.456;2023-04-23T05:55:10;101374.22;;;14.89;53.18
50250;BME280;36133;42.522;27.456;2023-04-23T05:57:37;101392.78;;;15.55;51.55
50250;BME280;36133;42.522;27.456;2023-04-23T06:00:09;101340.19;;;15.41;50.88
50250;BME280;36133;42.522;27.456;2023-04-23T06:02:36;101559.31;;;16.67;50.84
50250;BME280;36133;42.522;27.456;2023-04-23T06:05:02;101554.03;;;16.66;50.93
50250;BME280;36133;42.522;27.456;2023-04-23T06:07:28;101253.03;;;15.15;50.21
50250;BME280;36133;42.522;27.456;2023-04-23T06:09:53;101389.59;;;16.46;49.34
50250;BME280;36133;42.522;27.456;2023-04-23T06:12:19;101353.94;;;15.88;50.35
50250;BME280;36133;42.522;27.456;2023-04-23T06:14:44;101480.47;;;15.98;52.00
50250;BME280;36133;42.522;27.456;2023-04-23T06:17:10;101309.00;;;15.44;50.89
50250;BME280;36133;42.522;27.456;2023-04-23T06:19:35;101531.22;;;16.74;51.13
50250;BME280;36133;42.522;27.456;2023-04-23T06:22:01;101106.28;;;14.19;50.98
50250;BME280;36133;42.522;27.456;2023-04-23T06:24:27;101569.19;;;16.14;53.50
50250;BME280;36133;42.522;27.456;2023-04-23T06:27:03;101554.28;;;16.78;52.16
50250;BME280;36133;42.522;27.456;2023-04-23T06:29:28;101106.69;;;14.64;50.21
50250;BME280;36133;42.522;27.456;2023-04-23T06:31:55;101190.91;;;15.25;50.71
50250;BME280;36133;42.522;27.456;2023-04-23T06:34:24;101383.44;;;17.16;48.51
50250;BME280;36133;42.522;27.456;2023-04-23T06:36:50;101572.00;;;18.06;49.29
50250;BME280;36133;42.522;27.456;2023-04-23T06:39:16;101576.53;;;16.81;50.82
50250;BME280;36133;42.522;27.456;2023-04-23T06:41:42;101109.09;;;13.98;51.95
50250;BME280;36133;42.522;27.456;2023-04-23T06:44:10;101195.44;;;14.16;52.04
50250;BME280;36133;42.522;27.456;2023-04-23T06:46:39;101430.59;;;15.78;52.73
50250;BME280;36133;42.522;27.456;2023-04-23T06:49:05;101578.72;;;16.45;52.40
50250;BME280;36133;42.522;27.456;2023-04-23T06:51:31;101310.38;;;15.94;50.19
50250;BME280;36133;42.522;27.456;2023-04-23T06:53:56;101176.09;;;15.41;49.02
50250;BME280;36133;42.522;27.456;2023-04-23T06:56:25;101523.75;;;18.94;45.86
50250;BME280;36133;42.522;27.456;2023-04-23T07:02:30;101211.28;;;17.88;43.25
50250;BME280;36133;42.522;27.456;2023-04-23T07:05:22;101399.16;;;17.79;45.63
50250;BME280;36133;42.522;27.456;2023-04-23T07:08:07;101601.44;;;18.55;44.83
50250;BME280;36133;42.522;27.456;2023-04-23T07:10:33;101060.78;;;16.26;43.83
50250;BME280;36133;42.522;27.456;2023-04-23T07:12:59;101293.78;;;17.20;43.88
50250;BME280;36133;42.522;27.456;2023-04-23T07:15:52;101566.06;;;20.03;41.95
50250;BME280;36133;42.522;27.456;2023-04-23T07:18:18;101409.28;;;20.78;38.70
50250;BME280;36133;42.522;27.456;2023-04-23T07:20:43;101364.63;;;22.15;35.33
50250;BME280;36133;42.522;27.456;2023-04-23T07:23:12;101393.81;;;23.44;34.16
50250;BME280;36133;42.522;27.456;2023-04-23T07:28:42;101585.63;;;24.98;31.34
50250;BME280;36133;42.522;27.456;2023-04-23T07:31:08;101566.06;;;24.72;30.48
50250;BME280;36133;42.522;27.456;2023-04-23T07:33:34;101500.22;;;26.43;28.77
50250;BME280;36133;42.522;27.456;2023-04-23T07:36:00;101560.66;;;27.38;28.33
50250;BME280;36133;42.522;27.456;2023-04-23T07:38:41;101425.56;;;25.70;28.25
50250;BME280;36133;42.522;27.456;2023-04-23T07:41:07;101572.47;;;27.89;25.76
50250;BME280;36133;42.522;27.456;2023-04-23T07:43:35;101431.31;;;28.61;24.98
50250;BME280;36133;42.522;27.456;2023-04-23T07:46:01;101118.31;;;25.67;25.89
50250;BME280;36133;42.522;27.456;2023-04-23T07:48:27;101200.47;;;27.02;25.09
50250;BME280;36133;42.522;27.456;2023-04-23T07:50:53;101559.09;;;30.49;23.27
50250;BME280;36133;42.522;27.456;2023-04-23T07:53:18;101554.69;;;27.95;25.65
50250;BME280;36133;42.522;27.456;2023-04-23T07:55:44;101074.00;;;26.72;23.45
50250;BME280;36133;42.522;27.456;2023-04-23T07:58:09;101365.84;;;28.50;23.81
50250;BME280;36133;42.522;27.456;2023-04-23T08:00:35;101417.94;;;28.29;23.84
50250;BME280;36133;42.522;27.456;2023-04-23T08:03:01;101276.81;;;28.65;22.33
50250;BME280;36133;42.522;27.456;2023-04-23T08:05:26;101284.09;;;33.37;18.43
50250;BME280;36133;42.522;27.456;2023-04-23T08:07:52;101415.31;;;32.18;20.10
50250;BME280;36133;42.522;27.456;2023-04-23T08:10:18;101541.75;;;33.89;18.75
50250;BME280;36133;42.522;27.456;2023-04-23T08:12:51;101472.09;;;34.04;18.17
50250;BME280;36133;42.522;27.456;2023-04-23T08:15:18;101505.41;;;33.58;17.55
50250;BME280;36133;42.522;27.456;2023-04-23T08:17:44;101118.97;;;30.35;18.08
50250;BME280;36133;42.522;27.456;2023-04-23T08:20:10;101113.75;;;27.70;20.73
50250;BME280;36133;42.522;27.456;2023-04-23T08:22:36;101535.25;;;27.95;22.41
50250;BME280;36133;42.522;27.456;2023-04-23T08:25:09;101446.47;;;29.32;19.95
50250;BME280;36133;42.522;27.456;2023-04-23T08:27:34;101540.81;;;32.14;17.58
50250;BME280;36133;42.522;27.456;2023-04-23T08:30:01;101301.69;;;25.78;21.63
50250;BME280;36133;42.522;27.456;2023-04-23T08:32:29;101325.75;;;28.61;19.85
50250;BME280;36133;42.522;27.456;2023-04-23T08:34:55;101295.28;;;26.64;21.31
50250;BME280;36133;42.522;27.456;2023-04-23T08:37:24;101059.59;;;29.19;18.49
50250;BME280;36133;42.522;27.456;2023-04-23T08:39:52;101497.63;;;31.43;18.36
50250;BME280;36133;42.522;27.456;2023-04-23T08:42:42;101194.25;;;31.35;16.74
50250;BME280;36133;42.522;27.456;2023-04-23T08:45:12;101159.16;;;32.41;15.96
50250;BME280;36133;42.522;27.456;2023-04-23T08:47:41;101402.81;;;30.83;17.66
50250;BME280;36133;42.522;27.456;2023-04-23T08:50:09;101535.88;;;33.68;16.00
50250;BME280;36133;42.522;27.456;2023-04-23T08:52:40;101524.72;;;34.51;15.87
50250;BME280;36133;42.522;27.456;2023-04-23T08:55:09;101386.81;;;36.01;14.08
50250;BME280;36133;42.522;27.456;2023-04-23T08:57:59;101304.88;;;34.60;15.09
50250;BME280;36133;42.522;27.456;2023-04-23T09:00:29;101371.72;;;35.35;14.68
50250;BME280;36133;42.522;27.456;2023-04-23T09:03:00;101435.19;;;34.20;15.98
50250;BME280;36133;42.522;27.456;2023-04-23T09:05:52;101346.53;;;34.88;14.98
50250;BME280;36133;42.522;27.456;2023-04-23T09:08:19;101103.91;;;30.36;17.66
50250;BME280;36133;42.522;27.456;2023-04-23T09:10:46;101119.22;;;32.00;16.14
50250;BME280;36133;42.522;27.456;2023-04-23T09:13:17;101518.63;;;34.57;15.83
50250;BME280;36133;42.522;27.456;2023-04-23T09:15:44;101440.16;;;30.82;18.44
50250;BME280;36133;42.522;27.456;2023-04-23T09:18:09;101521.44;;;34.49;16.37
50250;BME280;36133;42.522;27.456;2023-04-23T09:20:35;101137.59;;;31.12;16.98
50250;BME280;36133;42.522;27.456;2023-04-23T09:23:06;101398.06;;;29.09;19.68
50250;BME280;36133;42.522;27.456;2023-04-23T09:25:32;101258.84;;;28.57;19.85
50250;BME280;36133;42.522;27.456;2023-04-23T09:28:01;101179.16;;;31.00;17.38
50250;BME280;36133;42.522;27.456;2023-04-23T09:30:38;101135.50;;;30.95;17.11
50250;BME280;36133;42.522;27.456;2023-04-23T09:33:06;101363.53;;;31.26;17.99
50250;BME280;36133;42.522;27.456;2023-04-23T09:35:42;101338.00;;;32.04;17.36
50250;BME280;36133;42.522;27.456;2023-04-23T09:41:42;101368.94;;;33.23;16.70
50250;BME280;36133;42.522;27.456;2023-04-23T09:44:18;101457.63;;;31.34;18.66
50250;BME280;36133;42.522;27.456;2023-04-23T09:46:44;101287.34;;;31.97;17.42
50250;BME280;36133;42.522;27.456;2023-04-23T09:49:20;101101.09;;;31.00;17.13
50250;BME280;36133;42.522;27.456;2023-04-23T09:51:49;101168.28;;;29.56;19.68
50250;BME280;36133;42.522;27.456;2023-04-23T09:54:21;101120.63;;;29.11;19.52
50250;BME280;36133;42.522;27.456;2023-04-23T09:56:54;101506.91;;;33.02;18.38
50250;BME280;36133;42.522;27.456;2023-04-23T09:59:30;101102.59;;;31.42;17.39
50250;BME280;36133;42.522;27.456;2023-04-23T10:02:00;101310.47;;;31.89;17.15
50250;BME280;36133;42.522;27.456;2023-04-23T10:04:27;101523.81;;;33.98;16.99
50250;BME280;36133;42.522;27.456;2023-04-23T10:06:54;101314.81;;;33.28;17.34
50250;BME280;36133;42.522;27.456;2023-04-23T10:09:25;101462.88;;;32.62;17.85
50250;BME280;36133;42.522;27.456;2023-04-23T10:12:24;101254.06;;;34.15;16.54
50250;BME280;36133;42.522;27.456;2023-04-23T10:14:50;101030.44;;;30.46;18.03
50250;BME280;36133;42.522;27.456;2023-04-23T10:17:20;101075.06;;;28.69;19.82
50250;BME280;36133;42.522;27.456;2023-04-23T10:19:47;101085.44;;;28.64;20.05
50250;BME280;36133;42.522;27.456;2023-04-23T10:22:15;101137.22;;;30.14;18.47
50250;BME280;36133;42.522;27.456;2023-04-23T10:24:44;101211.31;;;30.70;19.16
50250;BME280;36133;42.522;27.456;2023-04-23T10:27:16;100987.13;;;29.30;19.21
50250;BME280;36133;42.522;27.456;2023-04-23T10:29:44;101396.84;;;31.58;19.14
50250;BME280;36133;42.522;27.456;2023-04-23T10:32:12;101305.44;;;29.13;20.70
50250;BME280;36133;42.522;27.456;2023-04-23T10:34:41;101318.50;;;29.93;21.15
50250;BME280;36133;42.522;27.456;2023-04-23T10:37:07;101187.94;;;28.65;21.37
50250;BME280;36133;42.522;27.456;2023-04-23T10:39:36;101481.59;;;31.35;21.05
50250;BME280;36133;42.522;27.456;2023-04-23T10:42:03;101103.69;;;28.51;21.25
50250;BME280;36133;42.522;27.456;2023-04-23T10:44:36;100967.41;;;28.80;19.95
50250;BME280;36133;42.522;27.456;2023-04-23T10:47:16;101158.91;;;29.84;20.17
50250;BME280;36133;42.522;27.456;2023-04-23T10:49:45;101067.34;;;30.79;19.46
50250;BME280;36133;42.522;27.456;2023-04-23T10:52:15;101182.31;;;30.43;20.24
50250;BME280;36133;42.522;27.456;2023-04-23T10:54:51;101462.38;;;33.14;19.90
50250;BME280;36133;42.522;27.456;2023-04-23T10:57:23;101297.19;;;33.10;18.96
50250;BME280;36133;42.522;27.456;2023-04-23T10:59:57;101295.94;;;31.78;19.88
50250;BME280;36133;42.522;27.456;2023-04-23T11:02:42;101439.22;;;33.70;19.19
50250;BME280;36133;42.522;27.456;2023-04-23T11:05:13;101296.03;;;33.29;18.89
50250;BME280;36133;42.522;27.456;2023-04-23T11:07:40;101001.53;;;29.64;20.42
50250;BME280;36133;42.522;27.456;2023-04-23T11:10:15;101297.81;;;30.92;20.63
50250;BME280;36133;42.522;27.456;2023-04-23T11:12:42;101179.34;;;30.67;20.87
50250;BME280;36133;42.522;27.456;2023-04-23T11:15:18;101203.91;;;28.25;22.91
50250;BME280;36133;42.522;27.456;2023-04-23T11:21:07;101186.97;;;31.47;19.65
50250;BME280;36133;42.522;27.456;2023-04-23T11:23:38;101396.03;;;33.54;19.13
50250;BME280;36133;42.522;27.456;2023-04-23T11:26:04;101354.94;;;35.97;17.39
50250;BME280;36133;42.522;27.456;2023-04-23T11:28:31;101294.81;;;33.61;18.35
50250;BME280;36133;42.522;27.456;2023-04-23T11:31:04;101005.44;;;29.63;19.51
50250;BME280;36133;42.522;27.456;2023-04-23T11:33:32;101426.78;;;32.75;19.10
50250;BME280;36133;42.522;27.456;2023-04-23T11:38:47;101272.47;;;31.43;19.97
50250;BME280;36133;42.522;27.456;2023-04-23T11:41:14;100998.78;;;31.00;18.93
50250;BME280;36133;42.522;27.456;2023-04-23T11:43:46;101186.47;;;32.21;19.44
50250;BME280;36133;42.522;27.456;2023-04-23T11:46:13;101296.81;;;35.27;17.54
50250;BME280;36133;42.522;27.456;2023-04-23T11:48:44;101140.31;;;30.53;19.71
50250;BME280;36133;42.522;27.456;2023-04-23T11:51:13;101059.69;;;28.15;21.06
50250;BME280;36133;42.522;27.456;2023-04-23T11:53:48;101285.13;;;31.27;19.95
50250;BME280;36133;42.522;27.456;2023-04-23T11:56:18;101230.19;;;28.62;22.23
50250;BME280;36133;42.522;27.456;2023-04-23T11:58:44;101162.28;;;30.14;20.14
50250;BME280;36133;42.522;27.456;2023-04-23T12:01:13;100965.31;;;29.92;19.15
50250;BME280;36133;42.522;27.456;2023-04-23T12:03:40;101398.75;;;32.66;19.45
50250;BME280;36133;42.522;27.456;2023-04-23T12:06:10;100992.81;;;28.54;21.21
50250;BME280;36133;42.522;27.456;2023-04-23T12:08:41;101415.88;;;31.29;20.63
50250;BME280;36133;42.522;27.456;2023-04-23T12:11:11;100996.78;;;28.29;20.56
50250;BME280;36133;42.522;27.456;2023-04-23T12:13:39;101391.91;;;30.35;21.40
50250;BME280;36133;42.522;27.456;2023-04-23T12:16:07;101397.38;;;30.08;21.40
50250;BME280;36133;42.522;27.456;2023-04-23T12:18:35;101253.88;;;29.96;20.73
50250;BME280;36133;42.522;27.456;2023-04-23T12:21:09;101393.44;;;31.06;20.57
50250;BME280;36133;42.522;27.456;2023-04-23T12:23:39;101248.91;;;29.61;21.71
50250;BME280;36133;42.522;27.456;2023-04-23T12:26:29;101409.66;;;30.01;21.49
50250;BME280;36133;42.522;27.456;2023-04-23T12:28:58;101081.53;;;28.22;21.21
50250;BME280;36133;42.522;27.456;2023-04-23T12:31:28;101230.81;;;30.70;20.60
50250;BME280;36133;42.522;27.456;2023-04-23T12:34:00;101390.97;;;31.05;20.66
50250;BME280;36133;42.522;27.456;2023-04-23T12:36:27;101014.56;;;26.94;22.13
50250;BME280;36133;42.522;27.456;2023-04-23T12:42:26;100873.06;;;26.61;22.75
50250;BME280;36133;42.522;27.456;2023-04-23T12:44:52;101409.19;;;28.51;23.11
50250;BME280;36133;42.522;27.456;2023-04-23T12:47:25;101113.13;;;28.02;22.32
50250;BME280;36133;42.522;27.456;2023-04-23T12:49:56;101095.22;;;28.61;22.10
50250;BME280;36133;42.522;27.456;2023-04-23T12:52:34;101397.66;;;30.90;21.72
50250;BME280;36133;42.522;27.456;2023-04-23T12:55:27;101325.81;;;31.78;20.77
50250;BME280;36133;42.522;27.456;2023-04-23T12:58:16;101259.16;;;30.44;21.75
50250;BME280;36133;42.522;27.456;2023-04-23T13:00:42;101255.56;;;29.41;22.27
50250;BME280;36133;42.522;27.456;2023-04-23T13:06:04;100949.59;;;28.11;22.53
50250;BME280;36133;42.522;27.456;2023-04-23T13:08:32;100951.31;;;25.83;24.75
50250;BME280;36133;42.522;27.456;2023-04-23T13:11:03;100883.78;;;24.18;26.73